Time;durP1;ratioP1;P1;durP2;ratioP2;P2;SDS_P1;SDS_P2;PMS_P1;PMS_P2;Temp;Humidity;BMP_temperature;BMP_pressure;BME280_temperature;BME280_humidity;BME280_pressure;Samples;Min_cycle;Max_cycle;Signal;HPM_P1;HPM_P2
2021/06/07 00:01:55;;;;;;;16.10;14.07;;;17.70;47.70;18.50;101046.00;;;;5113638;27;20526;-77
2021/06/07 00:04:25;;;;;;;17.30;15.18;;;17.70;47.70;18.50;101050.00;;;;5109700;27;20419;-78
2021/06/07 00:06:55;;;;;;;17.05;15.35;;;17.70;48.00;18.40;101048.00;;;;5109548;27;20422;-77
2021/06/07 00:09:23;;;;;;;17.23;15.43;;;17.70;47.70;18.40;101052.00;;;;5111934;27;20791;-77
2021/06/07 00:11:53;;;;;;;16.20;14.50;;;17.70;47.90;18.50;101053.00;;;;5116973;28;20454;-76
2021/06/07 00:14:26;;;;;;;17.60;15.90;;;17.70;48.60;18.50;101055.00;;;;5117682;27;20440;-77
2021/06/07 00:16:54;;;;;;;17.00;15.30;;;17.70;49.00;18.50;101043.00;;;;5126689;27;20420;-79
2021/06/07 00:19:22;;;;;;;17.47;15.67;;;17.70;48.80;18.50;101044.00;;;;5107200;28;20434;-77
2021/06/07 00:21:50;;;;;;;18.33;16.45;;;17.70;48.40;18.50;101047.00;;;;5106811;27;20977;-77
2021/06/07 00:24:21;;;;;;;17.50;15.30;;;17.70;48.50;18.50;101057.00;;;;5108600;27;20908;-77
2021/06/07 00:26:49;;;;;;;17.90;16.10;;;17.70;48.70;18.50;101055.00;;;;5107571;27;20416;-78
2021/06/07 00:29:17;;;;;;;18.40;16.50;;;17.70;48.80;18.50;101054.00;;;;5106248;27;20789;-77
2021/06/07 00:31:46;;;;;;;18.70;16.80;;;17.70;49.00;18.40;101048.00;;;;5106335;28;20412;-78
2021/06/07 00:34:15;;;;;;;18.60;16.80;;;17.70;49.10;18.40;101050.00;;;;5107171;27;20439;-78
2021/06/07 00:36:43;;;;;;;19.27;17.27;;;17.60;49.60;18.30;101046.00;;;;5106055;27;20438;-79
2021/06/07 00:39:14;;;;;;;18.10;16.30;;;17.60;50.20;18.30;101047.00;;;;5106199;27;20428;-77
2021/06/07 00:41:46;;;;;;;18.38;16.58;;;17.60;51.10;18.30;101048.00;;;;5108314;27;20515;-77
2021/06/07 00:44:17;;;;;;;19.40;17.30;;;17.60;51.20;18.30;101050.00;;;;5107941;27;21301;-78
2021/06/07 00:46:46;;;;;;;18.98;17.13;;;17.50;51.50;18.30;101052.00;;;;5105979;27;20416;-78
2021/06/07 00:49:15;;;;;;;19.52;17.52;;;17.50;52.20;18.20;101056.00;;;;5107492;28;20420;-77
2021/06/07 00:51:45;;;;;;;19.50;17.50;;;17.40;52.60;18.30;101058.00;;;;5105453;28;20415;-78
2021/06/07 00:54:15;;;;;;;20.70;18.60;;;17.50;53.40;18.20;101048.00;;;;5107348;27;20416;-78
2021/06/07 00:56:44;;;;;;;21.30;19.00;;;17.50;54.10;18.00;101050.00;;;;5106269;27;20948;-78
2021/06/07 00:59:13;;;;;;;23.50;21.10;;;17.40;55.40;17.80;101054.00;;;;5106398;28;20430;-78
2021/06/07 01:01:41;;;;;;;25.90;23.20;;;17.20;57.80;17.60;101051.00;;;;5104850;27;20420;-79
2021/06/07 01:04:09;;;;;;;27.67;24.55;;;17.00;59.80;17.40;101052.00;;;;5107223;27;20420;-79
2021/06/07 01:06:37;;;;;;;29.23;26.15;;;16.80;61.40;17.20;101061.00;;;;5105748;28;20446;-80
2021/06/07 01:09:06;;;;;;;30.95;27.45;;;16.70;62.90;17.10;101047.00;;;;5109117;27;20420;-81
2021/06/07 01:11:36;;;;;;;33.38;28.83;;;16.50;64.30;17.00;101065.00;;;;5107511;27;20420;-80
2021/06/07 01:14:07;;;;;;;36.00;30.90;;;16.40;66.90;17.00;101047.00;;;;5110803;28;20416;-80
2021/06/07 01:16:35;;;;;;;34.40;30.00;;;16.40;67.60;16.90;101046.00;;;;5105696;28;20416;-81
2021/06/07 01:19:05;;;;;;;37.28;31.42;;;16.30;68.20;16.90;101048.00;;;;5109784;27;20518;-81
2021/06/07 01:21:33;;;;;;;37.92;31.90;;;16.20;69.30;16.80;101056.00;;;;5108729;27;20491;-83
2021/06/07 01:24:04;;;;;;;40.42;32.70;;;16.20;69.90;16.90;101046.00;;;;5111409;27;20443;-82
2021/06/07 01:26:32;;;;;;;41.30;32.38;;;16.20;71.00;16.90;101039.00;;;;5114072;27;20428;-81
2021/06/07 01:29:00;;;;;;;43.10;33.45;;;16.20;71.70;16.90;101040.00;;;;5113234;27;20415;-81
2021/06/07 01:31:28;;;;;;;38.28;31.48;;;16.20;71.80;16.80;101034.00;;;;5118642;28;20423;-82
2021/06/07 01:33:56;;;;;;;40.33;32.42;;;16.10;71.90;16.70;101040.00;;;;5119398;28;20481;-79
2021/06/07 01:36:24;;;;;;;44.55;33.53;;;16.10;72.20;16.70;101043.00;;;;5110069;27;21404;-81
2021/06/07 01:38:52;;;;;;;44.63;33.70;;;16.00;72.70;16.70;101038.00;;;;5107918;28;20434;-80
2021/06/07 01:41:22;;;;;;;43.70;33.85;;;16.10;73.40;16.60;101040.00;;;;5107530;27;20641;-80
2021/06/07 01:43:50;;;;;;;40.58;32.35;;;16.00;73.90;16.60;101037.00;;;;5112028;27;20429;-81
2021/06/07 01:46:17;;;;;;;45.95;33.60;;;16.00;74.20;16.60;101032.00;;;;5122678;27;20412;-80
2021/06/07 01:48:46;;;;;;;43.90;34.70;;;16.00;74.60;16.60;101034.00;;;;5123017;27;20445;-81
2021/06/07 01:51:14;;;;;;;39.23;29.57;;;15.90;74.50;16.40;101033.00;;;;5110767;27;20464;-80
2021/06/07 01:53:43;;;;;;;40.53;33.83;;;15.90;74.50;16.50;101030.00;;;;5107352;28;20420;-81
2021/06/07 01:56:11;;;;;;;42.07;30.30;;;15.90;75.30;16.40;101032.00;;;;5109805;27;20196;-80
2021/06/07 01:58:41;;;;;;;40.00;29.60;;;15.80;75.30;16.30;101026.00;;;;5106939;27;20504;-80
2021/06/07 02:01:12;;;;;;;38.80;33.65;;;15.80;75.70;16.50;101034.00;;;;5106751;27;20913;-80
2021/06/07 02:03:40;;;;;;;36.23;27.80;;;15.80;76.00;16.40;101034.00;;;;5105723;28;20324;-78
2021/06/07 02:06:12;;;;;;;38.47;28.30;;;15.80;76.00;16.30;101029.00;;;;5107413;28;20827;-79
2021/06/07 02:08:40;;;;;;;36.30;27.50;;;15.80;76.30;16.30;101042.00;;;;5105171;27;20477;-77
2021/06/07 02:11:12;;;;;;;37.23;28.63;;;15.70;76.50;16.30;101034.00;;;;5105500;27;20450;-77
2021/06/07 02:13:45;;;;;;;36.83;31.60;;;15.70;76.80;16.50;101026.00;;;;5104527;27;20495;-77
2021/06/07 02:16:18;;;;;;;36.85;29.90;;;15.80;77.20;16.60;101037.00;;;;5103983;27;20427;-77
2021/06/07 02:18:46;;;;;;;34.55;29.50;;;16.00;77.40;16.70;101033.00;;;;5106263;27;20786;-78
2021/06/07 02:21:16;;;;;;;34.90;26.43;;;16.00;77.30;16.50;101035.00;;;;5108333;28;20211;-78
2021/06/07 02:23:44;;;;;;;34.05;28.67;;;16.00;77.00;16.60;101034.00;;;;5105831;28;20420;-78
2021/06/07 02:26:12;;;;;;;33.47;29.23;;;16.00;76.80;16.60;101039.00;;;;5105781;28;20421;-78
2021/06/07 02:28:48;;;;;;;35.50;28.77;;;16.00;76.60;16.60;101036.00;;;;5103402;27;20424;-79
2021/06/07 02:31:17;;;;;;;32.80;28.17;;;16.00;76.50;16.70;101032.00;;;;5107223;28;20985;-78
2021/06/07 02:33:49;;;;;;;34.92;29.65;;;16.10;76.20;16.80;101039.00;;;;5108231;28;20416;-78
2021/06/07 02:36:16;;;;;;;35.65;28.80;;;16.10;76.00;16.80;101031.00;;;;5111424;27;20479;-78
2021/06/07 02:38:45;;;;;;;32.67;28.23;;;16.20;75.60;16.80;101034.00;;;;5126515;27;20428;-79
2021/06/07 02:41:13;;;;;;;33.38;28.98;;;16.20;75.00;16.80;101029.00;;;;5127875;27;21260;-79
2021/06/07 02:43:42;;;;;;;36.08;30.30;;;16.20;75.00;16.80;101035.00;;;;5125878;28;20412;-78
2021/06/07 02:46:10;;;;;;;37.13;30.15;;;16.20;74.90;16.70;101034.00;;;;5126017;28;20434;-79
2021/06/07 02:48:38;;;;;;;36.75;30.20;;;16.20;74.80;16.70;101040.00;;;;5120128;28;20420;-78
2021/06/07 02:51:06;;;;;;;40.08;31.38;;;16.20;74.80;16.70;101035.00;;;;5128584;28;20499;-79
2021/06/07 02:53:34;;;;;;;41.10;33.33;;;16.30;74.90;16.70;101028.00;;;;5132897;27;20471;-79
2021/06/07 02:56:03;;;;;;;39.92;32.90;;;16.20;75.30;16.60;101037.00;;;;5129273;28;20392;-79
2021/06/07 02:58:31;;;;;;;36.77;28.90;;;16.10;75.20;16.40;101025.00;;;;5123223;27;20223;-79
2021/06/07 03:01:04;;;;;;;45.67;33.80;;;16.00;75.20;16.50;101020.00;;;;5121941;28;20415;-79
2021/06/07 03:03:33;;;;;;;46.57;33.87;;;16.00;75.80;16.50;101033.00;;;;5132865;27;20465;-79
2021/06/07 03:06:01;;;;;;;47.22;35.92;;;15.90;76.10;16.50;101027.00;;;;5114210;27;20424;-79
2021/06/07 03:08:32;;;;;;;46.70;34.97;;;15.90;76.20;16.50;101023.00;;;;5120869;28;20507;-79
2021/06/07 03:11:06;;;;;;;46.63;32.53;;;15.90;76.60;16.40;101027.00;;;;5121921;28;20952;-79
2021/06/07 03:13:34;;;;;;;46.17;36.10;;;15.90;76.40;16.40;101027.00;;;;5108938;27;20492;-79
2021/06/07 03:16:04;;;;;;;44.10;33.80;;;15.90;76.70;16.40;101025.00;;;;5098003;28;21226;-80
2021/06/07 03:18:33;;;;;;;44.80;34.70;;;15.90;77.30;16.50;101021.00;;;;5108416;28;20432;-79
2021/06/07 03:21:01;;;;;;;45.97;34.40;;;15.90;76.80;16.50;101021.00;;;;5106071;28;20424;-79
2021/06/07 03:23:32;;;;;;;46.38;33.45;;;15.90;76.70;16.40;101031.00;;;;5106227;28;20412;-80
2021/06/07 03:26:01;;;;;;;40.58;32.30;;;16.00;76.80;16.40;101038.00;;;;5103991;28;20425;-79
2021/06/07 03:28:29;;;;;;;46.63;35.15;;;15.90;76.70;16.40;101020.00;;;;5095229;28;20916;-80
2021/06/07 03:30:58;;;;;;;41.53;33.33;;;15.90;76.80;16.40;101027.00;;;;5105288;28;21027;-79
2021/06/07 03:33:27;;;;;;;44.20;34.42;;;15.90;76.70;16.50;101031.00;;;;5105003;28;20416;-78
2021/06/07 03:35:57;;;;;;;39.35;32.40;;;15.90;77.00;16.40;101025.00;;;;5104868;28;20419;-78
2021/06/07 03:38:27;;;;;;;40.58;33.60;;;15.90;76.60;16.40;101031.00;;;;5103716;28;20919;-79
2021/06/07 03:40:56;;;;;;;39.15;31.90;;;15.90;76.40;16.40;101034.00;;;;5105674;28;20809;-79
2021/06/07 03:43:27;;;;;;;39.30;32.37;;;15.90;76.40;16.40;101031.00;;;;5108215;28;20420;-81
2021/06/07 03:45:56;;;;;;;37.95;31.88;;;15.90;76.30;16.40;101031.00;;;;5107063;28;20507;-80
2021/06/07 03:48:24;;;;;;;39.58;31.90;;;15.90;76.30;16.50;101040.00;;;;5131127;27;20438;-82
2021/06/07 03:50:55;;;;;;;39.58;32.42;;;16.00;76.40;16.50;101028.00;;;;5117199;28;20487;-81
2021/06/07 03:53:23;;;;;;;40.85;32.00;;;15.90;76.30;16.50;101030.00;;;;5119409;28;20484;-81
2021/06/07 03:55:51;;;;;;;39.88;31.58;;;15.90;76.30;16.50;101033.00;;;;5115674;28;20422;-82
2021/06/07 03:58:22;;;;;;;38.38;30.35;;;15.90;76.10;16.40;101033.00;;;;5109346;28;20416;-82
2021/06/07 04:00:50;;;;;;;40.92;31.70;;;16.00;76.30;16.50;101027.00;;;;5108395;28;20430;-81
2021/06/07 04:03:18;;;;;;;40.38;31.10;;;15.90;76.20;16.50;69926.00;;;;5106310;28;20449;-83
2021/06/07 04:05:46;;;;;;;40.97;31.17;;;15.90;76.20;16.50;101022.00;;;;5106644;28;20431;-82
2021/06/07 04:08:15;;;;;;;45.63;32.20;;;16.00;76.40;16.40;101031.00;;;;5107333;28;20558;-86
2021/06/07 04:10:46;;;;;;;47.53;34.70;;;15.90;76.10;52.70;163765.00;;;;5107707;28;20430;-87
2021/06/07 04:13:14;;;;;;;53.40;37.45;;;15.90;76.30;52.70;163761.00;;;;5107900;28;20420;-86
2021/06/07 04:15:42;;;;;;;52.00;37.03;;;15.80;76.80;16.20;101024.00;;;;5108298;28;20427;-87
2021/06/07 04:18:11;;;;;;;58.97;38.50;;;15.70;76.80;16.20;101024.00;;;;5109351;28;20491;-81
2021/06/07 04:20:38;;;;;;;62.65;39.88;;;15.70;77.40;16.30;101017.00;;;;5108147;28;20512;-82
2021/06/07 04:23:08;;;;;;;60.50;40.35;;;15.70;77.80;16.20;69877.00;;;;5109285;28;20518;-82
2021/06/07 04:25:37;;;;;;;64.88;41.15;;;15.60;77.70;16.30;101031.00;;;;5109240;28;20473;-82
2021/06/07 04:28:06;;;;;;;66.03;41.47;;;15.70;78.40;52.70;163709.00;;;;5127250;27;20628;-83
2021/06/07 04:30:34;;;;;;;61.28;41.20;;;15.60;78.20;16.20;101028.00;;;;5111769;28;20424;-83
2021/06/07 04:33:06;;;;;;;70.35;42.72;;;15.60;78.20;52.70;163715.00;;;;5110610;28;20951;-82
2021/06/07 04:35:37;;;;;;;62.63;40.03;;;15.60;78.50;52.70;163727.00;;;;5107320;28;20451;-81
2021/06/07 04:38:05;;;;;;;59.97;40.78;;;15.70;78.60;16.30;101027.00;;;;5110173;28;20514;-81
2021/06/07 04:40:37;;;;;;;55.90;39.00;;;15.70;78.70;16.30;101029.00;;;;5112292;27;20428;-80
2021/06/07 04:43:10;;;;;;;55.63;39.85;;;15.60;78.70;16.30;101018.00;;;;5110869;28;20430;-81
2021/06/07 04:45:41;;;;;;;62.22;41.25;;;15.70;78.70;16.30;101021.00;;;;5112478;28;20919;-80
2021/06/07 04:48:11;;;;;;;52.63;38.28;;;15.70;78.70;16.30;101034.00;;;;5111988;28;20420;-81
2021/06/07 04:50:40;;;;;;;56.87;40.07;;;15.70;78.70;16.30;101027.00;;;;5111183;28;20497;-80
2021/06/07 04:53:47;;;;;;;51.35;36.40;;;15.70;78.70;16.40;101021.00;;;;5113570;27;20424;-81
2021/06/07 04:56:19;;;;;;;48.70;35.80;;;15.70;78.70;16.40;101029.00;;;;5115524;27;20448;-81
2021/06/07 04:58:49;;;;;;;44.92;33.58;;;15.60;78.40;16.40;101037.00;;;;5114927;27;21411;-80
2021/06/07 05:01:17;;;;;;;46.45;34.58;;;15.70;78.40;16.40;101025.00;;;;5116706;27;20480;-81
2021/06/07 05:03:45;;;;;;;44.63;34.75;;;15.80;78.60;16.50;101041.00;;;;5130431;27;20424;-82
2021/06/07 05:06:13;;;;;;;45.92;34.00;;;15.80;78.50;16.50;101036.00;;;;5131069;28;20444;-82
2021/06/07 05:08:40;;;;;;;40.30;32.00;;;15.70;78.40;16.40;101037.00;;;;5125713;28;20423;-82
2021/06/07 05:11:08;;;;;;;40.08;33.47;;;15.70;78.00;16.40;101031.00;;;;5130607;28;20415;-82
2021/06/07 05:13:38;;;;;;;45.28;34.65;;;15.70;77.90;16.40;101036.00;;;;5148853;27;20427;-82
2021/06/07 05:16:06;;;;;;;44.88;34.17;;;15.70;77.90;16.30;101035.00;;;;5131104;28;20993;-83
2021/06/07 05:18:35;;;;;;;44.03;34.28;;;15.70;78.00;16.20;101043.00;;;;5128305;27;20476;-84
2021/06/07 05:21:04;;;;;;;53.90;37.35;;;15.60;77.80;16.20;101042.00;;;;5130994;27;20457;-84
2021/06/07 05:23:32;;;;;;;56.22;37.38;;;15.60;78.00;16.20;101039.00;;;;5141524;27;20458;-83
2021/06/07 05:26:00;;;;;;;56.38;39.92;;;15.60;78.30;16.20;101044.00;;;;5119304;28;20476;-83
2021/06/07 05:28:29;;;;;;;60.00;40.00;;;15.60;78.70;16.20;101055.00;;;;5117234;27;20420;-82
2021/06/07 05:30:58;;;;;;;60.55;39.40;;;15.60;78.80;16.20;101049.00;;;;5117916;28;20446;-83
2021/06/07 05:33:27;;;;;;;64.22;41.15;;;15.60;78.80;16.20;101055.00;;;;5127825;27;20429;-85
2021/06/07 05:35:55;;;;;;;64.50;43.23;;;15.60;78.90;16.20;101055.00;;;;5130547;28;20464;-85
2021/06/07 05:38:24;;;;;;;67.10;42.58;;;15.60;79.10;16.20;101058.00;;;;5128497;27;20420;-83
2021/06/07 05:40:54;;;;;;;62.45;41.30;;;15.60;79.20;16.20;101056.00;;;;5124863;27;20443;-83
2021/06/07 05:43:25;;;;;;;68.28;39.72;;;15.60;79.30;16.10;101065.00;;;;5125434;27;20452;-83
2021/06/07 05:45:54;;;;;;;71.13;41.17;;;15.60;79.40;16.10;101048.00;;;;5119920;28;20439;-83
2021/06/07 05:48:23;;;;;;;1.10;0.50;;;15.50;79.40;16.10;101061.00;;;;5120461;28;20463;-84
2021/06/07 05:50:52;;;;;;;1.10;0.80;;;15.50;79.50;16.00;101055.00;;;;5120890;27;20427;-84
2021/06/07 05:53:21;;;;;;;1.67;1.30;;;15.50;79.60;16.00;101057.00;;;;5121292;28;20431;-82
2021/06/07 05:55:49;;;;;;;1.33;0.60;;;15.50;79.80;16.00;101051.00;;;;5119685;27;20416;-82
2021/06/07 05:58:21;;;;;;;1.20;0.70;;;15.50;79.90;16.10;101063.00;;;;5109907;27;20422;-85
2021/06/07 06:00:51;;;;;;;1.00;0.60;;;15.40;79.90;16.00;101075.00;;;;5115516;28;20494;-84
2021/06/07 06:03:20;;;;;;;1.23;0.80;;;15.50;80.10;16.00;101060.00;;;;5119428;28;20414;-85
2021/06/07 06:05:50;;;;;;;1.10;0.90;;;15.50;80.10;217.30;163574.00;;;;5119986;27;20846;-85
2021/06/07 06:08:19;;;;;;;1.30;0.80;;;15.50;80.20;16.00;101047.00;;;;5117779;28;20408;-87
2021/06/07 06:10:47;;;;;;;1.30;0.53;;;15.50;80.30;16.00;101062.00;;;;5139498;27;20533;-86
2021/06/07 06:13:35;;;;;;;2.03;0.60;;;15.40;80.20;16.00;101062.00;;;;5122196;28;20446;-86
2021/06/07 06:16:04;;;;;;;1.00;0.47;;;15.40;80.30;52.70;163606.00;;;;5119765;27;20455;-84
2021/06/07 06:18:32;;;;;;;1.33;0.83;;;15.40;80.30;16.00;101063.00;;;;5121313;27;20451;-86
2021/06/07 06:21:02;;;;;;;1.70;1.60;;;15.40;80.40;16.00;101062.00;;;;5118753;28;20424;-84
2021/06/07 06:23:30;;;;;;;1.67;0.93;;;15.50;80.60;16.00;101064.00;;;;5121715;27;20422;-83
2021/06/07 06:25:58;;;;;;;1.27;0.75;;;15.40;80.50;16.00;101054.00;;;;5111102;28;20428;-83
2021/06/07 06:28:26;;;;;;;1.20;0.50;;;15.40;80.50;52.70;163600.00;;;;5112322;27;20432;-84
2021/06/07 06:30:55;;;;;;;1.00;0.77;;;15.40;80.50;16.00;101052.00;;;;5110256;27;20424;-84
2021/06/07 06:33:23;;;;;;;1.05;0.50;;;15.50;80.60;16.00;101067.00;;;;5104296;28;20408;-84
2021/06/07 06:35:51;;;;;;;1.20;0.60;;;15.50;80.60;16.00;101058.00;;;;5107761;27;20507;-85
2021/06/07 06:38:20;;;;;;;2.20;1.38;;;15.50;80.60;16.00;101062.00;;;;5110949;28;20871;-85
2021/06/07 06:40:48;;;;;;;1.20;0.60;;;15.50;80.70;16.00;69820.00;;;;5113454;27;20415;-85
2021/06/07 06:43:16;;;;;;;1.10;0.70;;;15.50;80.60;217.30;163638.00;;;;5111044;27;20450;-86
2021/06/07 06:45:44;;;;;;;1.30;1.00;;;15.50;80.60;16.10;69851.00;;;;5124296;27;20500;-86
2021/06/07 06:48:13;;;;;;;1.20;0.60;;;15.50;80.70;16.10;101056.00;;;;5108877;28;20420;-86
2021/06/07 06:50:43;;;;;;;1.00;0.65;;;15.60;80.70;16.20;101059.00;;;;5110154;28;20455;-84
2021/06/07 06:53:16;;;;;;;1.00;0.50;;;15.60;80.70;16.20;101063.00;;;;5107715;28;20422;-84
2021/06/07 06:55:48;;;;;;;1.20;0.60;;;15.60;80.80;16.20;101079.00;;;;5111130;28;20430;-83
2021/06/07 06:58:16;;;;;;;1.33;0.90;;;15.60;80.70;16.30;101076.00;;;;5124793;27;20991;-81
2021/06/07 07:00:45;;;;;;;1.20;1.00;;;15.60;80.80;16.30;101065.00;;;;5109664;27;21116;-85
2021/06/07 07:03:16;;;;;;;1.10;0.50;;;15.70;80.90;16.30;101077.00;;;;5106676;28;20420;-80
2021/06/07 07:05:46;;;;;;;2.00;1.80;;;15.70;80.90;16.30;101074.00;;;;5106606;28;20473;-81
2021/06/07 07:08:15;;;;;;;1.40;0.80;;;15.70;80.60;16.30;101072.00;;;;5100404;28;20416;-79
2021/06/07 07:10:45;;;;;;;1.15;0.55;;;15.70;80.60;16.30;101068.00;;;;5102411;28;20507;-80
2021/06/07 07:13:14;;;;;;;1.38;0.80;;;15.70;80.50;16.30;101078.00;;;;5109117;28;20958;-82
2021/06/07 07:15:43;;;;;;;1.30;0.60;;;15.70;80.30;16.30;101079.00;;;;5103987;28;20512;-80
2021/06/07 07:18:12;;;;;;;1.20;0.50;;;15.70;80.00;16.30;101077.00;;;;5104911;28;20416;-86
2021/06/07 07:20:41;;;;;;;1.67;1.50;;;15.80;80.20;16.50;101084.00;;;;5122668;27;20428;-86
2021/06/07 07:23:11;;;;;;;1.43;1.30;;;15.80;80.40;16.50;101074.00;;;;5109381;28;20788;-85
2021/06/07 07:25:40;;;;;;;1.20;0.90;;;15.90;80.50;16.60;101079.00;;;;5108223;28;20420;-84
2021/06/07 07:28:11;;;;;;;1.50;0.80;;;16.00;80.40;16.70;101070.00;;;;5107078;28;20412;-84
2021/06/07 07:30:39;;;;;;;1.40;0.90;;;16.10;80.30;16.80;69983.00;;;;5109746;28;20473;-84
2021/06/07 07:33:11;;;;;;;0.90;0.50;;;16.10;80.00;16.80;101083.00;;;;5112210;28;20915;-84
2021/06/07 07:35:40;;;;;;;1.40;1.23;;;16.20;79.80;16.90;101086.00;;;;5108225;28;20416;-83
2021/06/07 07:38:09;;;;;;;1.00;0.50;;;16.20;79.30;17.00;101082.00;;;;5112559;28;20467;-86
2021/06/07 07:40:41;;;;;;;1.10;0.57;;;16.30;79.50;52.70;164068.00;;;;5128452;28;20444;-85
2021/06/07 07:43:11;;;;;;;1.45;0.60;;;16.30;79.20;17.10;101100.00;;;;5109354;28;20432;-85
2021/06/07 07:45:40;;;;;;;0.90;0.50;;;16.30;78.70;17.10;101085.00;;;;5106796;28;20424;-87
2021/06/07 07:48:09;;;;;;;1.70;1.60;;;16.40;78.40;17.00;70047.00;;;;5106088;28;20451;-85
2021/06/07 07:50:38;;;;;;;2.42;1.10;;;16.30;78.00;17.10;101101.00;;;;5108709;28;20452;-87
2021/06/07 07:53:09;;;;;;;1.40;0.68;;;16.30;78.00;17.10;101095.00;;;;5100757;28;21089;-87
2021/06/07 07:55:38;;;;;;;1.20;0.90;;;16.40;78.00;17.10;101093.00;;;;5102353;28;20797;-87
2021/06/07 07:58:11;;;;;;;2.33;1.48;;;16.40;78.00;17.10;101103.00;;;;5124940;28;20451;-85
2021/06/07 08:00:41;;;;;;;1.13;0.70;;;16.40;77.80;17.00;100935.00;;;;5124132;28;20912;-87
2021/06/07 08:03:09;;;;;;;1.20;1.10;;;16.30;77.70;17.00;101090.00;;;;5108456;28;20500;-87
2021/06/07 08:05:37;;;;;;;1.20;1.00;;;16.30;78.20;17.00;70052.00;;;;5110215;28;20408;-87
2021/06/07 08:08:06;;;;;;;2.30;2.10;;;16.40;77.70;17.10;101087.00;;;;5109766;28;20483;-87
2021/06/07 08:10:35;;;;;;;1.60;1.50;;;16.40;77.70;17.20;101104.00;;;;5112096;28;20473;-86
2021/06/07 08:13:06;;;;;;;2.20;1.90;;;16.50;78.00;17.30;101090.00;;;;5130875;27;20412;-88
2021/06/07 08:15:35;;;;;;;1.00;0.60;;;16.60;77.80;17.30;101091.00;;;;5105189;27;20466;-87
2021/06/07 08:18:04;;;;;;;1.05;0.70;;;16.60;77.30;17.30;101102.00;;;;5120266;27;20420;-85
2021/06/07 08:20:33;;;;;;;1.10;0.57;;;16.60;77.00;17.30;101101.00;;;;5113305;28;20422;-88
2021/06/07 08:23:01;;;;;;;1.30;0.90;;;16.60;76.00;17.30;70121.00;;;;5113696;27;20427;-87
2021/06/07 08:25:30;;;;;;;1.48;0.63;;;16.60;76.30;17.30;70109.00;;;;5105327;28;20419;-87
2021/06/07 08:27:58;;;;;;;1.08;0.60;;;16.70;76.60;17.30;101103.00;;;;5131099;27;20759;-87
2021/06/07 08:30:28;;;;;;;1.98;0.60;;;16.60;76.70;17.20;101102.00;;;;5114661;28;20440;-87
2021/06/07 08:32:57;;;;;;;1.30;1.20;;;16.50;76.40;17.20;101108.00;;;;5116287;28;20412;-87
2021/06/07 08:35:26;;;;;;;1.60;1.10;;;16.60;77.30;17.20;101105.00;;;;5133596;27;20428;-87
2021/06/07 08:37:54;;;;;;;1.00;0.60;;;16.60;76.50;17.30;101118.00;;;;5128409;28;20450;-87
2021/06/07 08:40:22;;;;;;;1.03;0.60;;;16.60;77.20;17.30;70124.00;;;;5127904;28;20827;-85
2021/06/07 08:42:55;;;;;;;1.00;0.50;;;16.70;77.00;17.30;70118.00;;;;5109473;28;20424;-87
2021/06/07 08:45:25;;;;;;;1.42;1.02;;;16.70;76.40;217.30;164187.00;;;;5116713;27;20448;-87
2021/06/07 08:47:55;;;;;;;1.70;1.40;;;16.70;75.90;17.40;101105.00;;;;5136220;28;20505;-86
2021/06/07 08:50:27;;;;;;;1.30;1.10;;;16.80;76.60;217.30;164237.00;;;;5134362;28;20402;-87
2021/06/07 08:52:56;;;;;;;1.20;0.60;;;16.80;76.30;17.50;101116.00;;;;5134393;27;20432;-87
2021/06/07 08:55:28;;;;;;;1.50;0.90;;;16.80;76.40;17.60;101108.00;;;;5131185;28;20404;-88
2021/06/07 08:58:02;;;;;;;1.58;1.00;;;16.90;75.90;17.60;101113.00;;;;5128618;27;20515;-87
2021/06/07 09:00:33;;;;;;;1.20;0.50;;;16.90;75.50;17.60;101112.00;;;;5123755;27;20408;-88
2021/06/07 09:03:05;;;;;;;1.50;1.10;;;17.00;75.50;52.70;164385.00;;;;5113676;27;20436;-88
2021/06/07 09:05:38;;;;;;;1.00;0.50;;;17.10;75.60;17.80;101100.00;;;;5113310;28;20420;-88
2021/06/07 09:08:09;;;;;;;1.00;0.60;;;17.10;74.00;18.00;101095.00;;;;5131292;27;20511;-89
2021/06/07 09:10:40;;;;;;;1.10;0.80;;;17.30;74.50;18.20;101115.00;;;;5113510;27;20431;-88
2021/06/07 09:13:11;;;;;;;1.05;0.65;;;17.40;74.00;18.20;101100.00;;;;5131664;27;20531;-88
2021/06/07 09:15:43;;;;;;;0.90;0.50;;;17.50;72.50;18.30;101105.00;;;;5107587;28;20416;-87
2021/06/07 09:18:16;;;;;;;1.40;1.20;;;17.60;72.80;-80.20;164596.00;;;;5113445;27;20527;-87
2021/06/07 09:20:46;;;;;;;1.30;0.85;;;17.50;71.70;217.30;164602.00;;;;5115653;28;20422;-88
2021/06/07 09:23:17;;;;;;;1.20;0.60;;;17.50;72.70;18.20;101089.00;;;;5115967;27;20515;-88
2021/06/07 09:25:47;;;;;;;1.20;0.77;;;17.50;71.80;217.30;164546.00;;;;5123931;28;20416;-86
2021/06/07 09:28:21;;;;;;;1.10;0.70;;;17.50;72.30;18.30;101107.00;;;;5127557;27;20481;-88
2021/06/07 09:30:54;;;;;;;1.10;0.70;;;17.50;71.10;18.40;101100.00;;;;5126743;27;20416;-86
2021/06/07 09:33:29;;;;;;;1.17;0.63;;;17.60;70.50;18.40;101101.00;;;;5118807;28;20434;-86
2021/06/07 09:36:23;;;;;;;1.90;1.70;;;17.60;69.00;18.60;101110.00;;;;5114353;28;20434;-88
2021/06/07 09:38:58;;;;;;;1.20;0.60;;;17.70;69.80;52.70;164828.00;;;;5107465;27;20427;-88
2021/06/07 09:41:29;;;;;;;1.20;0.60;;;17.90;69.80;19.00;70491.00;;;;5130024;27;20428;-87
2021/06/07 09:43:59;;;;;;;3.00;1.60;;;17.80;68.20;19.00;101109.00;;;;5114212;27;20526;-87
2021/06/07 09:46:31;;;;;;;1.50;1.20;;;18.00;68.00;19.20;101104.00;;;;5113461;28;20778;-87
2021/06/07 09:49:07;;;;;;;1.48;0.75;;;18.20;68.10;19.40;70570.00;;;;5113133;28;20423;-88
2021/06/07 09:51:39;;;;;;;5.18;1.50;;;18.30;67.20;19.60;101101.00;;;;5114284;28;20428;-86
2021/06/07 09:54:14;;;;;;;1.00;0.80;;;18.50;66.90;19.60;101107.00;;;;5130246;27;20477;-88
2021/06/07 09:56:51;;;;;;;1.00;0.50;;;18.60;64.70;19.80;101083.00;;;;5117780;27;20432;-86
2021/06/07 09:59:28;;;;;;;1.65;1.05;;;18.70;63.10;20.00;101095.00;;;;5124520;28;20432;-87
2021/06/07 10:01:58;;;;;;;1.00;0.40;;;18.80;61.30;20.10;101113.00;;;;5099217;28;20454;-87
2021/06/07 10:04:50;;;;;;;1.30;0.90;;;18.90;61.30;20.10;101106.00;;;;5120512;28;20416;-88
2021/06/07 10:07:22;;;;;;;1.40;1.10;;;18.90;60.00;20.20;101100.00;;;;5136993;27;20419;-86
2021/06/07 10:10:15;;;;;;;1.02;0.70;;;19.00;59.20;20.30;101105.00;;;;5116610;28;20413;-87
2021/06/07 10:12:46;;;;;;;1.00;0.60;;;19.20;57.40;20.20;101086.00;;;;5116244;28;20424;-88
2021/06/07 10:15:31;;;;;;;3.30;1.88;;;19.10;55.10;20.40;101082.00;;;;5111674;28;20420;-87
2021/06/07 10:18:05;;;;;;;2.08;1.90;;;19.20;56.80;20.90;101083.00;;;;5113688;27;20431;-87
2021/06/07 10:20:48;;;;;;;0.90;0.50;;;19.60;56.90;21.20;101074.00;;;;5113680;28;20421;-87
2021/06/07 10:23:26;;;;;;;1.13;0.55;;;19.90;53.20;21.30;101076.00;;;;5122889;28;20439;-88
2021/06/07 10:26:03;;;;;;;1.10;0.60;;;20.00;53.50;21.50;101085.00;;;;5122119;27;20518;-88
2021/06/07 10:29:12;;;;;;;1.60;1.25;;;20.10;52.90;21.60;101080.00;;;;5124798;28;20424;-88
2021/06/07 10:32:13;;;;;;;1.17;1.00;;;20.30;48.10;21.90;101082.00;;;;5133351;28;20461;-89
2021/06/07 10:35:10;;;;;;;1.40;0.60;;;20.50;49.80;22.00;101084.00;;;;5129050;28;20410;-89
2021/06/07 10:38:09;;;;;;;1.13;0.60;;;20.60;46.50;22.00;101089.00;;;;5132931;28;20400;-89
2021/06/07 10:40:56;;;;;;;1.40;0.70;;;20.60;45.80;22.30;101106.00;;;;5135353;28;20454;-88
2021/06/07 10:43:42;;;;;;;1.10;0.57;;;20.90;46.00;22.30;101084.00;;;;5133308;28;20423;-89
2021/06/07 10:46:24;;;;;;;1.30;0.60;;;20.90;44.20;22.40;101087.00;;;;5118693;27;20410;-89
2021/06/07 10:48:55;;;;;;;1.50;1.00;;;21.00;43.20;22.60;101069.00;;;;5137445;28;20416;-88
2021/06/07 10:51:27;;;;;;;1.30;0.50;;;21.10;42.70;22.40;101091.00;;;;5137870;28;20396;-88
2021/06/07 10:54:31;;;;;;;25.38;22.77;;;20.90;41.30;22.30;101084.00;;;;5134486;28;20402;-88
2021/06/07 10:57:37;;;;;;;24.55;21.95;;;20.90;45.60;22.40;101102.00;;;;5134464;28;20408;-88